Time;durP1;ratioP1;P1;durP2;ratioP2;P2;SDS_P1;SDS_P2;PMS_P1;PMS_P2;Temp;Humidity;BMP_temperature;BMP_pressure;BME280_temperature;BME280_humidity;BME280_pressure;Samples;Min_cycle;Max_cycle;Signal;HPM_P1;HPM_P2
2024/01/03 00:01:26;;;;;;;4.60;0.70;;;9.60;99.90;;;;;;5057303;28;20463;-73
2024/01/03 00:03:55;;;;;;;3.13;1.03;;;9.70;99.90;;;;;;5055373;28;20532;-74
2024/01/03 00:06:22;;;;;;;4.13;0.83;;;9.70;99.90;;;;;;5055614;28;20974;-74
2024/01/03 00:08:49;;;;;;;1.50;0.70;;;9.70;99.90;;;;;;5062122;28;20901;-72
2024/01/03 00:11:20;;;;;;;2.43;1.30;;;9.80;99.90;;;;;;5057143;28;20775;-71
2024/01/03 00:14:05;;;;;;;8.27;1.77;;;9.90;99.90;;;;;;5056432;28;20895;-74
2024/01/03 00:16:34;;;;;;;1.70;1.00;;;10.00;99.90;;;;;;5046373;28;20548;-70
2024/01/03 00:19:03;;;;;;;7.83;2.07;;;10.00;99.90;;;;;;5054742;28;20497;-70
2024/01/03 00:21:31;;;;;;;2.30;1.70;;;10.00;99.90;;;;;;5061605;28;20470;-73
2024/01/03 00:23:59;;;;;;;3.90;1.00;;;10.20;99.90;;;;;;5056160;28;20479;-73
2024/01/03 00:26:26;;;;;;;1.90;0.83;;;;;;;;;;5047041;28;21039;-76
2024/01/03 00:28:53;;;;;;;9.13;1.80;;;10.40;99.90;;;;;;5041201;28;20555;-71
2024/01/03 00:31:36;;;;;;;7.50;1.30;;;10.40;99.90;;;;;;5045554;28;20533;-75
2024/01/03 00:34:10;;;;;;;8.53;2.30;;;10.40;99.90;;;;;;5042186;28;20483;-73
2024/01/03 00:36:37;;;;;;;6.50;1.93;;;10.50;99.90;;;;;;5042529;28;20478;-71
2024/01/03 00:39:04;;;;;;;4.13;1.37;;;10.50;99.90;;;;;;5062874;28;20580;-69
2024/01/03 00:41:31;;;;;;;26.83;2.80;;;10.40;99.90;;;;;;5055943;28;20903;-71
2024/01/03 00:43:58;;;;;;;2.80;1.20;;;10.40;99.90;;;;;;5055783;28;20474;-71
2024/01/03 00:46:25;;;;;;;39.83;3.90;;;10.40;99.90;;;;;;5055104;28;20903;-70
2024/01/03 00:48:52;;;;;;;4.10;1.80;;;10.50;99.90;;;;;;5056420;28;20532;-70
2024/01/03 00:51:20;;;;;;;5.37;1.77;;;10.50;99.90;;;;;;5055037;28;20556;-70
2024/01/03 00:53:47;;;;;;;6.23;2.00;;;10.40;99.90;;;;;;5056149;28;20498;-71
2024/01/03 00:56:14;;;;;;;11.40;1.97;;;10.40;99.90;;;;;;5055234;28;20956;-70
2024/01/03 00:58:41;;;;;;;4.30;1.50;;;10.50;99.90;;;;;;5060092;28;20470;-71
2024/01/03 01:01:08;;;;;;;7.27;2.60;;;10.60;99.90;;;;;;5067830;28;20479;-69
2024/01/03 01:03:35;;;;;;;15.00;2.27;;;10.60;99.90;;;;;;5061313;28;21074;-72
2024/01/03 01:06:02;;;;;;;14.07;2.13;;;10.50;99.90;;;;;;5062031;28;20559;-71
2024/01/03 01:08:30;;;;;;;8.40;2.30;;;10.50;99.90;;;;;;5063146;28;20537;-73
2024/01/03 01:10:57;;;;;;;9.43;2.70;;;10.60;99.90;;;;;;5052289;28;21043;-71
2024/01/03 01:13:24;;;;;;;17.03;2.20;;;10.50;99.90;;;;;;5062081;28;20477;-71
2024/01/03 01:15:51;;;;;;;8.67;1.97;;;10.60;99.90;;;;;;5057893;28;20532;-70
2024/01/03 01:18:18;;;;;;;5.53;1.57;;;10.60;99.90;;;;;;5062095;28;20543;-71
2024/01/03 01:20:44;;;;;;;18.47;2.70;;;10.40;99.90;;;;;;5062631;28;20521;-72
2024/01/03 01:23:11;;;;;;;11.60;1.73;;;10.50;99.90;;;;;;5062330;28;20498;-71
2024/01/03 01:25:39;;;;;;;4.43;1.33;;;10.40;99.90;;;;;;5059167;28;20479;-69
2024/01/03 01:28:07;;;;;;;14.33;2.73;;;10.40;99.90;;;;;;5062556;28;20510;-71
2024/01/03 01:30:34;;;;;;;8.27;1.87;;;10.40;99.90;;;;;;5062680;28;20479;-69
2024/01/03 01:33:01;;;;;;;3.50;1.70;;;10.50;99.90;;;;;;5061805;28;20530;-72
2024/01/03 01:35:28;;;;;;;7.00;2.33;;;10.40;99.90;;;;;;5062140;28;21171;-71
2024/01/03 01:37:55;;;;;;;8.80;1.80;;;10.50;99.90;;;;;;5058631;28;20483;-74
2024/01/03 01:40:22;;;;;;;6.73;2.57;;;10.50;99.90;;;;;;5057615;28;20486;-76
2024/01/03 01:42:50;;;;;;;8.23;2.20;;;10.40;99.90;;;;;;5061030;28;20479;-71
2024/01/03 01:45:17;;;;;;;4.03;1.17;;;10.40;99.90;;;;;;5058343;28;20483;-71
2024/01/03 01:47:44;;;;;;;5.93;1.47;;;10.40;99.90;;;;;;5048441;28;21165;-72
2024/01/03 01:50:11;;;;;;;3.67;1.63;;;10.60;99.90;;;;;;5049559;28;20536;-69
2024/01/03 01:52:40;;;;;;;5.90;2.30;;;10.40;99.90;;;;;;5044580;28;20549;-71
2024/01/03 01:55:07;;;;;;;13.17;1.93;;;10.50;99.90;;;;;;5050229;28;20479;-68
2024/01/03 01:57:35;;;;;;;6.87;2.83;;;10.60;99.90;;;;;;5047069;28;20512;-74
2024/01/03 02:00:04;;;;;;;12.77;2.23;;;10.70;99.90;;;;;;5048980;28;21045;-70
2024/01/03 02:02:32;;;;;;;8.53;1.67;;;10.60;99.90;;;;;;5054539;28;20472;-67
2024/01/03 02:04:59;;;;;;;8.93;2.60;;;10.60;99.90;;;;;;5042180;28;20479;-69
2024/01/03 02:07:27;;;;;;;3.40;1.87;;;10.40;99.90;;;;;;5058264;28;20914;-71
2024/01/03 02:09:54;;;;;;;12.33;2.43;;;10.50;99.90;;;;;;5045906;28;20616;-67
2024/01/03 02:12:27;;;;;;;3.77;1.57;;;10.50;99.90;;;;;;5045439;28;20483;-69
2024/01/03 02:14:54;;;;;;;9.43;2.47;;;10.40;99.90;;;;;;5041494;28;20479;-70
2024/01/03 02:17:24;;;;;;;9.23;1.40;;;10.50;99.90;;;;;;5042782;28;21021;-66
2024/01/03 02:19:51;;;;;;;6.77;1.67;;;10.40;99.90;;;;;;5053794;28;20529;-72
2024/01/03 02:22:20;;;;;;;3.40;1.37;;;10.50;99.90;;;;;;5044490;28;20907;-71
2024/01/03 02:24:47;;;;;;;4.80;1.70;;;10.70;99.90;;;;;;5052938;28;20487;-69
2024/01/03 02:27:13;;;;;;;4.33;2.10;;;10.80;99.90;;;;;;5047534;28;20541;-72
2024/01/03 02:29:40;;;;;;;24.17;2.87;;;10.80;99.90;;;;;;5044182;28;20887;-76
2024/01/03 02:32:07;;;;;;;10.53;2.43;;;10.80;99.90;;;;;;5057454;28;20529;-73
2024/01/03 02:34:34;;;;;;;6.47;1.97;;;10.90;99.90;;;;;;5047713;28;20475;-73
2024/01/03 02:37:02;;;;;;;3.70;2.00;;;11.00;99.90;;;;;;5048120;28;20468;-73
2024/01/03 02:39:30;;;;;;;6.00;1.73;;;10.90;99.90;;;;;;5030411;28;20500;-69
2024/01/03 02:41:57;;;;;;;5.53;1.90;;;11.00;99.90;;;;;;5056757;28;20993;-68
2024/01/03 02:44:27;;;;;;;15.20;3.43;;;11.00;99.90;;;;;;5048392;28;20480;-70
2024/01/03 02:46:54;;;;;;;7.93;1.73;;;10.90;99.90;;;;;;5041050;28;20530;-73
2024/01/03 02:49:21;;;;;;;5.07;1.40;;;10.90;99.90;;;;;;5054808;28;20479;-71
2024/01/03 02:51:48;;;;;;;10.90;2.17;;;10.80;99.90;;;;;;5061100;28;20509;-72
2024/01/03 02:54:15;;;;;;;4.10;1.80;;;10.80;99.90;;;;;;5060016;28;21186;-73
2024/01/03 02:56:43;;;;;;;6.67;1.77;;;10.70;99.90;;;;;;5061085;28;20486;-77
2024/01/03 02:59:10;;;;;;;5.47;1.57;;;10.60;99.90;;;;;;5060594;28;20479;-71
2024/01/03 03:01:37;;;;;;;4.73;1.50;;;10.60;99.90;;;;;;5060126;28;20475;-75
2024/01/03 03:04:04;;;;;;;21.77;2.87;;;10.60;99.90;;;;;;5060785;28;20470;-67
2024/01/03 03:06:31;;;;;;;1.70;0.80;;;10.60;99.90;;;;;;5061851;28;20479;-72
2024/01/03 03:08:58;;;;;;;3.27;1.63;;;10.60;99.90;;;;;;5059935;28;20478;-69
2024/01/03 03:11:24;;;;;;;10.47;1.87;;;10.60;99.90;;;;;;5059927;28;20577;-73
2024/01/03 03:13:53;;;;;;;2.43;1.03;;;10.60;99.90;;;;;;5055443;28;20475;-73
2024/01/03 03:16:20;;;;;;;2.27;0.87;;;10.70;99.90;;;;;;5060512;28;20541;-72
2024/01/03 03:18:47;;;;;;;12.10;1.73;;;10.70;99.90;;;;;;5059607;28;20868;-68
2024/01/03 03:21:14;;;;;;;4.90;1.23;;;10.70;99.90;;;;;;5057399;28;20490;-72
2024/01/03 03:23:41;;;;;;;7.23;2.03;;;10.70;99.90;;;;;;5060705;28;21028;-68
2024/01/03 03:26:08;;;;;;;6.70;1.57;;;10.70;99.90;;;;;;5059426;28;21337;-74
2024/01/03 03:28:35;;;;;;;7.27;2.07;;;10.70;99.90;;;;;;5060016;28;20478;-72
2024/01/03 03:31:04;;;;;;;3.10;1.53;;;10.60;99.90;;;;;;5059442;28;20887;-71
2024/01/03 03:33:32;;;;;;;5.90;1.83;;;10.70;99.90;;;;;;5057492;28;20516;-71
2024/01/03 03:35:59;;;;;;;6.20;1.70;;;10.60;99.90;;;;;;5060589;28;20478;-71
2024/01/03 03:38:26;;;;;;;29.03;3.43;;;10.60;99.90;;;;;;5060363;28;20470;-71
2024/01/03 03:40:53;;;;;;;8.30;2.00;;;10.60;99.90;;;;;;5060439;28;20479;-72
2024/01/03 03:43:19;;;;;;;5.53;1.70;;;10.70;99.90;;;;;;5059834;28;20475;-71
2024/01/03 03:45:46;;;;;;;8.80;3.00;;;10.70;99.90;;;;;;5060288;28;20539;-71
2024/01/03 03:48:15;;;;;;;9.90;1.50;;;10.70;99.90;;;;;;5060072;28;20483;-71
2024/01/03 03:50:41;;;;;;;4.07;2.13;;;10.70;99.90;;;;;;5060811;28;20567;-72
2024/01/03 03:53:10;;;;;;;4.50;2.40;;;10.70;99.90;;;;;;5059708;28;20486;-69
2024/01/03 03:55:41;;;;;;;11.33;1.47;;;10.80;99.90;;;;;;5059771;28;20540;-72
2024/01/03 03:58:08;;;;;;;14.03;2.17;;;10.70;99.90;;;;;;5059640;28;20999;-71
2024/01/03 04:00:35;;;;;;;9.53;1.87;;;10.80;99.90;;;;;;5059947;28;20478;-70
2024/01/03 04:03:06;;;;;;;4.60;1.40;;;10.70;99.90;;;;;;5059093;28;20544;-67
2024/01/03 04:05:34;;;;;;;11.90;2.90;;;10.60;99.90;;;;;;5058876;28;20483;-69
2024/01/03 04:08:01;;;;;;;13.63;2.47;;;10.70;99.90;;;;;;5063797;28;20470;-69
2024/01/03 04:10:28;;;;;;;8.33;2.17;;;10.70;99.90;;;;;;5058494;28;20482;-67
2024/01/03 04:12:55;;;;;;;25.80;3.27;;;10.80;99.90;;;;;;5059432;28;20537;-70
2024/01/03 04:15:22;;;;;;;6.67;1.30;;;10.80;99.90;;;;;;5057141;28;20479;-67
2024/01/03 04:17:49;;;;;;;3.07;0.90;;;10.70;99.90;;;;;;5055360;28;20517;-70
2024/01/03 04:20:16;;;;;;;14.33;2.00;;;10.70;99.90;;;;;;5059452;28;20482;-70
2024/01/03 04:22:45;;;;;;;5.20;1.70;;;10.80;99.90;;;;;;5060186;28;20486;-70
2024/01/03 04:25:13;;;;;;;5.73;1.30;;;10.60;99.90;;;;;;5058742;28;20478;-69
2024/01/03 04:27:39;;;;;;;6.50;1.63;;;10.70;99.90;;;;;;5059464;28;20481;-70
2024/01/03 04:30:07;;;;;;;6.70;2.10;;;10.50;99.90;;;;;;5060478;28;21126;-68
2024/01/03 04:32:34;;;;;;;3.50;1.20;;;10.50;99.90;;;;;;5048415;28;20470;-74
2024/01/03 04:35:01;;;;;;;17.23;2.27;;;10.40;99.90;;;;;;5063576;28;20474;-72
2024/01/03 04:37:30;;;;;;;8.00;1.93;;;10.40;99.90;;;;;;5063604;28;20487;-69
2024/01/03 04:39:58;;;;;;;11.87;1.90;;;10.40;99.90;;;;;;5063659;28;20471;-74
2024/01/03 04:42:25;;;;;;;5.77;1.90;;;10.30;99.90;;;;;;5062318;28;20482;-72
2024/01/03 04:44:52;;;;;;;5.20;2.10;;;10.20;99.90;;;;;;5062787;28;20528;-68
2024/01/03 04:47:19;;;;;;;36.93;4.23;;;10.30;99.90;;;;;;5063345;28;20573;-68
2024/01/03 04:49:46;;;;;;;4.17;1.00;;;10.40;99.90;;;;;;5063463;28;20471;-69
2024/01/03 04:52:13;;;;;;;4.27;1.53;;;10.30;99.90;;;;;;5062107;28;20914;-75
2024/01/03 04:54:40;;;;;;;10.13;2.73;;;10.20;99.90;;;;;;5062216;28;20566;-68
2024/01/03 04:57:08;;;;;;;3.47;1.20;;;10.20;99.90;;;;;;5063394;28;21726;-71
2024/01/03 04:59:35;;;;;;;7.10;2.37;;;10.20;99.90;;;;;;5062000;28;20528;-73
2024/01/03 05:02:02;;;;;;;11.67;1.43;;;10.30;99.90;;;;;;5062211;28;20467;-70
2024/01/03 05:04:29;;;;;;;8.63;2.50;;;10.20;99.90;;;;;;5062965;28;20471;-72
2024/01/03 05:06:56;;;;;;;11.40;2.93;;;10.20;99.90;;;;;;5062724;28;20533;-67
2024/01/03 05:09:23;;;;;;;13.30;2.03;;;10.20;99.90;;;;;;5063154;28;20483;-71
2024/01/03 05:11:50;;;;;;;6.97;1.63;;;10.20;99.90;;;;;;5062733;28;20501;-67
2024/01/03 05:14:18;;;;;;;6.30;2.13;;;10.10;99.90;;;;;;5062466;28;21127;-71
2024/01/03 05:16:45;;;;;;;2.57;0.80;;;10.30;99.90;;;;;;5062592;28;20487;-66
2024/01/03 05:19:12;;;;;;;2.10;1.00;;;10.30;99.90;;;;;;5060776;28;20548;-69
2024/01/03 05:21:39;;;;;;;37.03;3.03;;;10.30;99.90;;;;;;5058652;28;20475;-67
2024/01/03 05:24:06;;;;;;;2.77;1.10;;;10.30;99.90;;;;;;5063022;28;20474;-70
2024/01/03 05:26:33;;;;;;;5.00;1.30;;;10.20;99.90;;;;;;5061660;28;20475;-68
2024/01/03 05:29:00;;;;;;;9.43;2.03;;;10.20;99.90;;;;;;5062305;28;20479;-72
2024/01/03 05:31:28;;;;;;;7.33;1.13;;;10.20;99.90;;;;;;5057847;28;20477;-72
2024/01/03 05:33:55;;;;;;;3.67;1.50;;;10.20;99.90;;;;;;5062533;28;20552;-69
2024/01/03 05:36:22;;;;;;;4.73;1.10;;;10.10;99.90;;;;;;5062524;28;20506;-74
2024/01/03 05:38:49;;;;;;;12.23;1.30;;;10.20;99.90;;;;;;5061463;28;20539;-71
2024/01/03 05:41:16;;;;;;;10.63;1.53;;;10.30;99.90;;;;;;5062133;28;20529;-71
2024/01/03 05:43:42;;;;;;;8.73;2.13;;;10.40;99.90;;;;;;5062262;28;20486;-74
2024/01/03 05:46:09;;;;;;;2.07;1.43;;;10.50;99.90;;;;;;5062552;28;20604;-74
2024/01/03 05:48:38;;;;;;;8.60;1.70;;;10.50;99.90;;;;;;5062258;28;20479;-74
2024/01/03 05:51:05;;;;;;;7.80;1.27;;;10.30;99.90;;;;;;5050828;28;20478;-74
2024/01/03 05:53:32;;;;;;;7.63;1.10;;;10.30;99.90;;;;;;5055033;28;20575;-75
2024/01/03 05:55:59;;;;;;;2.00;0.97;;;10.30;99.90;;;;;;5074432;28;20799;-69
2024/01/03 05:58:26;;;;;;;12.00;2.00;;;10.30;99.90;;;;;;5061242;28;20883;-73
2024/01/03 06:00:54;;;;;;;9.33;1.33;;;;;;;;;;5062075;28;20479;-71
2024/01/03 06:03:21;;;;;;;10.53;1.60;;;10.20;99.90;;;;;;5060456;28;20885;-70
2024/01/03 06:05:49;;;;;;;8.23;1.67;;;10.20;99.90;;;;;;5062602;28;20543;-68
2024/01/03 06:08:16;;;;;;;4.77;2.00;;;10.30;99.90;;;;;;5061058;28;20510;-73
2024/01/03 06:10:43;;;;;;;27.47;2.77;;;10.30;99.90;;;;;;5062137;28;20490;-70
2024/01/03 06:13:14;;;;;;;23.50;3.70;;;10.30;99.90;;;;;;5060988;28;20863;-72
2024/01/03 06:15:41;;;;;;;13.03;3.10;;;10.20;99.90;;;;;;5061518;28;20459;-70
2024/01/03 06:18:08;;;;;;;25.10;3.10;;;10.10;99.90;;;;;;5060586;28;20463;-74
2024/01/03 06:20:35;;;;;;;12.97;2.17;;;10.10;99.90;;;;;;5061732;28;20518;-71
2024/01/03 06:23:03;;;;;;;3.40;2.00;;;10.10;99.90;;;;;;5061743;28;20540;-72
2024/01/03 06:25:31;;;;;;;12.30;3.80;;;10.20;99.90;;;;;;5059854;28;20705;-71
2024/01/03 06:27:57;;;;;;;7.53;3.00;;;10.20;99.90;;;;;;5060576;28;20824;-71
2024/01/03 06:30:25;;;;;;;12.73;1.80;;;;;;;;;;5065450;28;21437;-70
2024/01/03 06:32:51;;;;;;;12.77;2.57;;;10.20;99.90;;;;;;5061050;28;20545;-72
2024/01/03 06:35:18;;;;;;;11.40;1.47;;;10.10;99.90;;;;;;5060558;28;20899;-68
2024/01/03 06:37:45;;;;;;;11.77;1.57;;;10.10;99.90;;;;;;5061814;28;20479;-70
2024/01/03 06:40:14;;;;;;;10.37;2.57;;;10.10;99.90;;;;;;5061843;28;20483;-70
2024/01/03 06:42:41;;;;;;;3.80;1.77;;;10.20;99.90;;;;;;5061249;28;21142;-71
2024/01/03 06:45:09;;;;;;;30.13;2.90;;;10.20;99.90;;;;;;5048668;28;20503;-68
2024/01/03 06:47:36;;;;;;;16.87;2.57;;;10.20;99.90;;;;;;5052231;28;21113;-68
2024/01/03 06:50:03;;;;;;;10.20;2.50;;;10.30;99.90;;;;;;5040647;28;21242;-66
2024/01/03 06:52:29;;;;;;;5.63;1.83;;;10.10;99.90;;;;;;5040678;28;20878;-69
2024/01/03 06:54:57;;;;;;;8.83;2.30;;;10.20;99.90;;;;;;5040548;28;20472;-71
2024/01/03 06:57:25;;;;;;;5.00;1.40;;;10.10;99.90;;;;;;5039871;28;20488;-69
2024/01/03 06:59:52;;;;;;;6.77;1.70;;;10.10;99.90;;;;;;5040396;28;20912;-72
2024/01/03 07:02:19;;;;;;;4.37;1.60;;;10.00;99.90;;;;;;5040705;28;20557;-70
2024/01/03 07:04:46;;;;;;;27.60;3.47;;;9.90;99.90;;;;;;5040514;28;20484;-73
2024/01/03 07:07:16;;;;;;;11.03;1.33;;;10.10;99.90;;;;;;5039763;28;21074;-70
2024/01/03 07:09:44;;;;;;;20.63;2.33;;;10.10;99.90;;;;;;5052021;28;20493;-70
2024/01/03 07:12:10;;;;;;;15.87;2.90;;;10.00;99.90;;;;;;5035629;28;20525;-67
2024/01/03 07:14:39;;;;;;;5.30;1.93;;;10.10;99.90;;;;;;5050112;28;20533;-70
2024/01/03 07:17:06;;;;;;;12.30;1.93;;;;;;;;;;5044031;28;20490;-72
2024/01/03 07:19:33;;;;;;;26.63;2.73;;;10.10;99.90;;;;;;5045087;28;20495;-69
2024/01/03 07:22:00;;;;;;;22.53;5.60;;;10.00;99.90;;;;;;5040838;28;20492;-70
2024/01/03 07:24:27;;;;;;;7.43;1.90;;;10.00;99.90;;;;;;5051120;28;20831;-67
2024/01/03 07:26:54;;;;;;;13.83;3.77;;;10.00;99.90;;;;;;5046130;28;20515;-71
2024/01/03 07:29:22;;;;;;;8.57;2.40;;;10.10;99.90;;;;;;5038517;28;20487;-69
2024/01/03 07:31:50;;;;;;;1.90;1.00;;;10.10;99.90;;;;;;5043311;28;20508;-69
2024/01/03 07:34:17;;;;;;;9.17;1.73;;;10.20;99.90;;;;;;5039760;28;20487;-67
2024/01/03 07:36:44;;;;;;;9.77;1.50;;;10.20;99.90;;;;;;5041144;28;20488;-69
2024/01/03 07:39:10;;;;;;;5.80;2.13;;;10.20;99.90;;;;;;5032452;28;20500;-71
2024/01/03 07:41:37;;;;;;;9.97;2.73;;;10.30;99.90;;;;;;5051733;28;20479;-70
2024/01/03 07:44:04;;;;;;;4.10;1.10;;;10.30;99.90;;;;;;5039717;28;20483;-72
2024/01/03 07:46:31;;;;;;;19.27;3.30;;;10.20;99.90;;;;;;5039740;28;20530;-67
2024/01/03 07:49:00;;;;;;;7.53;1.70;;;10.10;99.90;;;;;;5039794;28;20530;-70
2024/01/03 07:51:26;;;;;;;6.20;2.40;;;10.10;99.90;;;;;;5038768;28;20909;-69
2024/01/03 07:53:53;;;;;;;14.70;3.60;;;10.00;99.90;;;;;;5039454;28;20533;-67
2024/01/03 07:56:20;;;;;;;15.93;1.90;;;10.00;99.90;;;;;;5039669;28;20475;-72
2024/01/03 07:58:47;;;;;;;6.33;2.13;;;10.10;99.90;;;;;;5039729;28;20986;-68
2024/01/03 08:01:14;;;;;;;9.87;2.97;;;10.30;99.90;;;;;;5040106;28;20464;-69
2024/01/03 08:03:41;;;;;;;12.83;1.53;;;10.20;99.90;;;;;;5039574;28;20823;-72
2024/01/03 08:06:11;;;;;;;11.23;1.57;;;10.10;99.90;;;;;;5039761;28;20483;-69
2024/01/03 08:08:37;;;;;;;5.57;1.37;;;10.30;99.90;;;;;;5040030;28;20829;-69
2024/01/03 08:11:05;;;;;;;2.27;1.30;;;10.30;99.90;;;;;;5043435;28;20472;-68
2024/01/03 08:13:32;;;;;;;14.27;2.93;;;10.30;99.90;;;;;;5043777;28;20832;-73
2024/01/03 08:15:59;;;;;;;8.33;1.50;;;10.50;99.90;;;;;;5042089;28;20905;-70
2024/01/03 08:18:26;;;;;;;5.20;2.20;;;10.60;99.90;;;;;;5041155;28;20479;-73
2024/01/03 08:20:52;;;;;;;15.47;3.53;;;10.50;99.90;;;;;;5036327;28;20549;-69
2024/01/03 08:23:21;;;;;;;8.73;1.40;;;10.50;99.90;;;;;;5052038;28;20791;-68
2024/01/03 08:25:47;;;;;;;4.90;1.73;;;10.60;99.90;;;;;;5043270;28;20491;-68
2024/01/03 08:28:15;;;;;;;11.63;1.70;;;10.50;99.90;;;;;;5047525;28;20533;-68
2024/01/03 08:30:41;;;;;;;3.80;1.07;;;10.60;99.90;;;;;;5051734;28;21099;-73
2024/01/03 08:33:08;;;;;;;22.63;2.10;;;10.70;99.90;;;;;;5043632;28;20523;-72
2024/01/03 08:35:35;;;;;;;5.90;1.23;;;10.60;99.90;;;;;;5042474;28;20480;-76
2024/01/03 08:38:03;;;;;;;2.27;1.10;;;10.60;99.90;;;;;;5035424;28;20479;-71
2024/01/03 08:40:31;;;;;;;5.70;1.30;;;10.50;99.90;;;;;;5051111;28;20494;-72
2024/01/03 08:43:00;;;;;;;3.87;1.60;;;10.50;99.90;;;;;;5062247;28;20889;-74
2024/01/03 08:45:27;;;;;;;5.33;1.87;;;10.50;99.90;;;;;;5058572;28;20481;-75
2024/01/03 08:47:54;;;;;;;5.90;2.10;;;10.50;99.90;;;;;;5063109;28;20978;-71
2024/01/03 08:50:21;;;;;;;15.97;1.90;;;10.40;99.90;;;;;;5062636;28;20517;-74
2024/01/03 08:52:47;;;;;;;7.13;1.27;;;10.40;99.90;;;;;;5062072;28;20483;-72
2024/01/03 08:55:15;;;;;;;25.10;3.00;;;;;;;;;;5058429;28;20860;-71
2024/01/03 08:57:43;;;;;;;6.93;2.20;;;10.50;99.90;;;;;;5063341;28;21114;-73
2024/01/03 09:00:11;;;;;;;7.37;1.53;;;10.30;99.90;;;;;;5063104;28;20466;-74
2024/01/03 09:02:37;;;;;;;11.93;1.90;;;10.40;99.90;;;;;;5062271;28;20568;-75
2024/01/03 09:05:05;;;;;;;22.23;2.77;;;10.50;99.90;;;;;;5062766;28;20471;-74
2024/01/03 09:07:32;;;;;;;11.57;1.53;;;10.40;99.90;;;;;;5062481;28;20482;-72
2024/01/03 09:09:58;;;;;;;4.40;1.70;;;10.60;99.90;;;;;;5061248;28;20520;-74
2024/01/03 09:12:26;;;;;;;4.07;1.10;;;10.70;99.90;;;;;;5061048;28;20525;-74
2024/01/03 09:14:54;;;;;;;5.40;1.20;;;10.70;99.90;;;;;;5060802;28;21050;-75
2024/01/03 09:17:21;;;;;;;5.50;2.00;;;11.00;99.90;;;;;;5061895;28;20536;-72
2024/01/03 09:19:48;;;;;;;9.33;1.83;;;10.90;99.90;;;;;;5059207;28;20474;-72
2024/01/03 09:22:16;;;;;;;4.80;1.80;;;11.10;99.90;;;;;;5065923;28;20479;-71
2024/01/03 09:24:43;;;;;;;5.90;2.00;;;11.50;99.90;;;;;;5065441;28;21065;-73
2024/01/03 09:27:10;;;;;;;2.93;1.27;;;11.60;99.90;;;;;;5061268;28;20482;-70
2024/01/03 09:29:37;;;;;;;11.70;1.50;;;11.60;99.90;;;;;;5061912;28;20853;-73
2024/01/03 09:32:07;;;;;;;2.70;1.00;;;11.60;99.90;;;;;;5061227;28;20482;-73
2024/01/03 09:34:39;;;;;;;5.00;1.40;;;11.70;99.90;;;;;;5061688;28;20487;-72
2024/01/03 09:37:06;;;;;;;7.77;1.47;;;11.80;99.90;;;;;;5062157;28;20479;-73
2024/01/03 09:39:33;;;;;;;8.20;1.77;;;11.60;99.90;;;;;;5060738;28;20479;-75
2024/01/03 09:42:00;;;;;;;5.43;1.70;;;11.70;99.90;;;;;;5061933;28;20893;-75
2024/01/03 09:44:28;;;;;;;5.93;1.73;;;11.60;99.90;;;;;;5061620;28;20475;-72
2024/01/03 09:46:55;;;;;;;8.67;1.40;;;11.80;99.90;;;;;;5060735;28;20475;-73
2024/01/03 09:49:23;;;;;;;4.50;1.40;;;11.90;99.90;;;;;;5059055;28;20499;-75
2024/01/03 09:51:53;;;;;;;15.03;1.27;;;12.00;99.90;;;;;;5064799;28;20479;-73
2024/01/03 09:54:20;;;;;;;4.33;1.47;;;12.10;99.90;;;;;;5050497;28;20536;-73
2024/01/03 09:56:48;;;;;;;6.73;1.60;;;12.00;99.90;;;;;;5061285;28;20528;-72
2024/01/03 09:59:17;;;;;;;6.80;1.27;;;12.20;99.90;;;;;;5059807;28;20485;-71
2024/01/03 10:01:55;;;;;;;5.33;1.67;;;12.30;99.90;;;;;;5056817;28;20532;-74
2024/01/03 10:04:23;;;;;;;8.90;2.20;;;12.10;99.90;;;;;;5041649;28;20488;-73
2024/01/03 10:06:54;;;;;;;3.70;1.23;;;12.20;99.90;;;;;;5045886;28;20541;-76
2024/01/03 10:09:21;;;;;;;8.17;1.20;;;12.20;99.90;;;;;;5050101;28;20471;-73
2024/01/03 10:11:51;;;;;;;10.07;1.53;;;12.10;99.90;;;;;;5061271;28;20479;-75
2024/01/03 10:14:18;;;;;;;3.37;1.17;;;12.10;99.90;;;;;;5046515;28;20475;-73
2024/01/03 10:16:45;;;;;;;5.53;1.37;;;12.10;99.90;;;;;;5052861;28;20480;-75
2024/01/03 10:19:13;;;;;;;10.47;2.07;;;12.00;99.90;;;;;;5043509;28;20542;-71
2024/01/03 10:21:50;;;;;;;5.77;2.93;;;11.80;99.90;;;;;;5036813;28;20471;-72
2024/01/03 10:24:17;;;;;;;2.20;1.40;;;;;;;;;;5045006;28;20477;-72
2024/01/03 10:26:45;;;;;;;12.97;1.80;;;11.70;99.90;;;;;;5059143;28;20487;-73
2024/01/03 10:29:14;;;;;;;14.57;3.47;;;11.50;99.90;;;;;;5045361;28;20516;-74
2024/01/03 10:31:41;;;;;;;13.50;2.10;;;11.40;99.90;;;;;;5051338;28;20990;-76
2024/01/03 10:34:12;;;;;;;8.00;1.60;;;11.30;99.90;;;;;;5044317;28;20852;-72
2024/01/03 10:36:41;;;;;;;6.87;1.80;;;11.10;99.90;;;;;;5065126;28;20483;-74
2024/01/03 10:39:13;;;;;;;5.23;2.23;;;11.10;99.90;;;;;;5060298;28;20507;-71
2024/01/03 10:41:43;;;;;;;7.30;3.00;;;10.90;99.90;;;;;;5059446;28;20483;-73
2024/01/03 10:44:11;;;;;;;3.27;1.20;;;10.90;99.90;;;;;;5057654;28;21047;-73
2024/01/03 10:46:38;;;;;;;11.77;1.80;;;11.00;99.90;;;;;;5058932;28;20478;-74
2024/01/03 10:49:06;;;;;;;8.47;2.30;;;10.90;99.90;;;;;;5060134;28;20482;-74
2024/01/03 10:51:39;;;;;;;7.10;1.87;;;11.10;99.90;;;;;;5060039;28;20837;-73
2024/01/03 10:54:08;;;;;;;4.20;1.40;;;11.10;99.90;;;;;;5059917;28;20482;-74
2024/01/03 10:56:36;;;;;;;4.40;1.90;;;10.90;99.90;;;;;;5059438;28;20544;-71
2024/01/03 10:59:04;;;;;;;8.77;2.93;;;10.90;99.90;;;;;;5057402;28;20491;-77
2024/01/03 11:01:40;;;;;;;5.70;2.60;;;11.10;99.90;;;;;;5039956;28;20826;-77
2024/01/03 11:04:12;;;;;;;4.47;1.20;;;11.20;99.90;;;;;;5059835;28;20482;-76
2024/01/03 11:06:47;;;;;;;7.13;1.77;;;11.30;99.90;;;;;;5056507;28;20479;-78
2024/01/03 11:09:16;;;;;;;7.93;2.07;;;11.30;99.90;;;;;;5060920;28;20479;-75
2024/01/03 11:11:44;;;;;;;7.00;1.67;;;11.20;99.90;;;;;;5059290;28;20475;-76
2024/01/03 11:14:23;;;;;;;7.67;1.07;;;11.60;99.90;;;;;;5059681;28;20814;-76
2024/01/03 11:16:51;;;;;;;5.13;1.00;;;11.70;99.90;;;;;;5059213;28;20463;-75
2024/01/03 11:19:27;;;;;;;4.23;1.97;;;11.80;99.90;;;;;;5055418;28;20479;-76
2024/01/03 11:21:54;;;;;;;8.37;1.73;;;11.70;99.90;;;;;;5060293;28;20961;-75
2024/01/03 11:24:46;;;;;;;4.70;1.50;;;11.80;99.90;;;;;;5058184;28;20562;-75
2024/01/03 11:27:21;;;;;;;10.10;2.07;;;11.80;99.90;;;;;;5058985;28;20483;-75
2024/01/03 11:29:49;;;;;;;6.13;0.90;;;11.90;99.90;;;;;;5056149;28;20478;-76
2024/01/03 11:32:26;;;;;;;6.03;1.87;;;12.00;99.90;;;;;;5059479;28;20490;-76
2024/01/03 11:34:54;;;;;;;10.60;3.23;;;11.90;99.90;;;;;;5047815;28;20481;-72
2024/01/03 11:37:38;;;;;;;6.53;1.60;;;11.90;99.90;;;;;;5044379;28;20499;-72
2024/01/03 11:40:08;;;;;;;7.97;1.80;;;12.10;99.90;;;;;;5052545;28;20468;-75
2024/01/03 11:42:37;;;;;;;5.10;1.70;;;12.10;99.90;;;;;;5047756;28;20533;-72
2024/01/03 11:45:07;;;;;;;12.73;1.87;;;11.90;99.90;;;;;;5052853;28;20536;-73
2024/01/03 11:47:35;;;;;;;7.80;1.73;;;12.10;99.90;;;;;;5059260;28;21034;-75
2024/01/03 11:50:03;;;;;;;17.60;2.47;;;12.10;99.90;;;;;;5064219;28;20507;-75
2024/01/03 11:52:34;;;;;;;10.17;2.07;;;12.00;99.90;;;;;;5064422;28;20473;-75
2024/01/03 11:55:11;;;;;;;19.33;2.70;;;11.70;99.90;;;;;;5059802;28;20459;-73
2024/01/03 11:57:42;;;;;;;5.87;1.93;;;11.70;99.90;;;;;;5063975;28;21523;-75
2024/01/03 12:00:11;;;;;;;12.13;1.90;;;11.70;99.90;;;;;;5063420;28;20482;-73
2024/01/03 12:02:38;;;;;;;6.33;3.23;;;11.60;99.90;;;;;;5063463;28;20478;-75
2024/01/03 12:05:06;;;;;;;11.30;2.53;;;11.40;99.90;;;;;;5063596;28;20490;-76
2024/01/03 12:07:35;;;;;;;9.80;2.70;;;11.30;99.90;;;;;;5061689;28;20503;-74
2024/01/03 12:10:03;;;;;;;11.27;1.60;;;11.30;99.90;;;;;;5058929;28;20485;-76
2024/01/03 12:12:32;;;;;;;28.83;3.13;;;11.30;99.90;;;;;;5063976;28;20486;-76
2024/01/03 12:14:59;;;;;;;8.50;1.37;;;11.30;99.90;;;;;;5052105;28;21070;-76
2024/01/03 12:17:28;;;;;;;9.33;1.57;;;11.20;99.90;;;;;;5061207;28;20880;-74
2024/01/03 12:20:06;;;;;;;6.27;1.50;;;11.20;99.90;;;;;;5068502;28;20474;-78
2024/01/03 12:22:33;;;;;;;10.63;1.20;;;11.20;99.90;;;;;;5062195;28;20479;-76
2024/01/03 12:25:00;;;;;;;7.60;1.53;;;11.20;99.90;;;;;;5058197;28;20478;-78
2024/01/03 12:27:26;;;;;;;6.93;2.10;;;11.30;99.90;;;;;;5062988;28;20559;-80
2024/01/03 12:30:11;;;;;;;8.43;1.13;;;11.20;99.90;;;;;;5064083;28;20463;-76
2024/01/03 12:32:38;;;;;;;4.93;2.20;;;11.00;99.90;;;;;;5049971;28;20475;-73
2024/01/03 12:35:06;;;;;;;6.90;4.83;;;11.00;99.90;;;;;;5062916;28;20907;-76
2024/01/03 12:37:33;;;;;;;8.53;1.73;;;11.20;99.90;;;;;;5062296;28;20544;-77
2024/01/03 12:39:59;;;;;;;7.23;1.30;;;11.20;99.90;;;;;;5063618;28;20536;-77
2024/01/03 12:42:26;;;;;;;4.50;1.80;;;11.30;99.90;;;;;;5062576;28;20616;-76
2024/01/03 12:44:55;;;;;;;3.53;1.10;;;11.30;99.90;;;;;;5063352;28;20471;-75
2024/01/03 12:47:22;;;;;;;2.83;1.17;;;11.30;99.90;;;;;;5036987;28;21067;-75
2024/01/03 12:49:51;;;;;;;3.07;1.20;;;11.30;99.90;;;;;;5023861;28;20522;-77